Terminal Aerodrome Forecast
Issued by NWS Los Angeles, CA

Home | Current Version | Previous Version | Text Only | Print | Product List | Glossary On
Versions: 1 2 3 4 5 6 7 8 9 10 11 12 13 14 15 16 17 18 19 20 21 22 23
000
FTUS46 KLOX 291700
TAFSMX
TAF
KSMX 291730Z 2918/3018 29003KT 6SM HZ SKC
     FM292100 31014KT P6SM SKC
     FM300300 33004KT P6SM SKC
     FM300500 VRB03KT 1/2SM FG VV001
     FM301300 VRB03KT 1SM BR OVC002=

USA.gov is the U.S. government's official web portal to all federal, state and local government web resources and services.